sensor_id;sensor_type;location;lat;lon;timestamp;P1;durP1;ratioP1;P2;durP2;ratioP2
69419;SDS011;71621;52.030;113.516;2023-08-01T00:01:41;18.50;;;9.73;;
69419;SDS011;71621;52.030;113.516;2023-08-01T00:04:45;14.80;;;9.52;;
69419;SDS011;71621;52.030;113.516;2023-08-01T00:07:48;18.98;;;9.70;;
69419;SDS011;71621;52.030;113.516;2023-08-01T00:10:52;20.20;;;10.97;;
69419;SDS011;71621;52.030;113.516;2023-08-01T00:13:55;23.65;;;10.35;;
69419;SDS011;71621;52.030;113.516;2023-08-01T00:16:59;24.05;;;10.57;;
69419;SDS011;71621;52.030;113.516;2023-08-01T00:20:02;19.98;;;10.23;;
69419;SDS011;71621;52.030;113.516;2023-08-01T00:23:07;20.65;;;10.45;;
69419;SDS011;71621;52.030;113.516;2023-08-01T00:26:10;23.40;;;10.10;;
69419;SDS011;71621;52.030;113.516;2023-08-01T00:29:14;18.67;;;10.20;;
69419;SDS011;71621;52.030;113.516;2023-08-01T00:32:17;22.40;;;10.85;;
69419;SDS011;71621;52.030;113.516;2023-08-01T00:35:21;24.42;;;12.05;;
69419;SDS011;71621;52.030;113.516;2023-08-01T00:38:24;23.70;;;10.48;;
69419;SDS011;71621;52.030;113.516;2023-08-01T00:41:28;22.40;;;9.97;;
69419;SDS011;71621;52.030;113.516;2023-08-01T00:44:31;24.92;;;10.85;;
69419;SDS011;71621;52.030;113.516;2023-08-01T00:47:35;22.10;;;10.55;;
69419;SDS011;71621;52.030;113.516;2023-08-01T00:50:39;22.15;;;9.77;;
69419;SDS011;71621;52.030;113.516;2023-08-01T00:53:43;23.52;;;9.20;;
69419;SDS011;71621;52.030;113.516;2023-08-01T00:56:49;24.10;;;10.17;;
69419;SDS011;71621;52.030;113.516;2023-08-01T00:59:55;32.22;;;10.43;;
69419;SDS011;71621;52.030;113.516;2023-08-01T01:02:59;23.40;;;10.40;;
69419;SDS011;71621;52.030;113.516;2023-08-01T01:06:09;23.50;;;10.55;;
69419;SDS011;71621;52.030;113.516;2023-08-01T01:09:27;28.88;;;11.27;;
69419;SDS011;71621;52.030;113.516;2023-08-01T01:12:34;23.77;;;10.17;;
69419;SDS011;71621;52.030;113.516;2023-08-01T01:15:38;23.83;;;10.80;;
69419;SDS011;71621;52.030;113.516;2023-08-01T01:18:41;34.17;;;12.32;;
69419;SDS011;71621;52.030;113.516;2023-08-01T01:22:03;25.08;;;11.27;;
69419;SDS011;71621;52.030;113.516;2023-08-01T01:25:27;28.17;;;11.85;;
69419;SDS011;71621;52.030;113.516;2023-08-01T01:28:32;28.53;;;11.80;;
69419;SDS011;71621;52.030;113.516;2023-08-01T01:31:37;28.67;;;11.27;;
69419;SDS011;71621;52.030;113.516;2023-08-01T01:34:41;29.85;;;12.23;;
69419;SDS011;71621;52.030;113.516;2023-08-01T01:37:45;30.48;;;12.32;;
69419;SDS011;71621;52.030;113.516;2023-08-01T01:40:48;28.67;;;11.55;;
69419;SDS011;71621;52.030;113.516;2023-08-01T01:43:52;31.13;;;12.33;;
69419;SDS011;71621;52.030;113.516;2023-08-01T01:46:56;33.00;;;12.40;;
69419;SDS011;71621;52.030;113.516;2023-08-01T01:49:59;29.05;;;12.45;;
69419;SDS011;71621;52.030;113.516;2023-08-01T01:53:03;24.35;;;11.77;;
69419;SDS011;71621;52.030;113.516;2023-08-01T01:56:07;21.02;;;10.85;;
69419;SDS011;71621;52.030;113.516;2023-08-01T01:59:11;21.57;;;11.97;;
69419;SDS011;71621;52.030;113.516;2023-08-01T02:02:15;24.42;;;11.65;;
69419;SDS011;71621;52.030;113.516;2023-08-01T02:05:19;24.48;;;11.85;;
69419;SDS011;71621;52.030;113.516;2023-08-01T02:08:22;26.20;;;12.40;;
69419;SDS011;71621;52.030;113.516;2023-08-01T02:11:26;21.98;;;12.27;;
69419;SDS011;71621;52.030;113.516;2023-08-01T02:14:29;27.20;;;13.00;;
69419;SDS011;71621;52.030;113.516;2023-08-01T02:17:33;23.00;;;12.85;;
69419;SDS011;71621;52.030;113.516;2023-08-01T02:20:37;22.95;;;12.15;;
69419;SDS011;71621;52.030;113.516;2023-08-01T02:23:42;26.02;;;12.13;;
69419;SDS011;71621;52.030;113.516;2023-08-01T02:26:45;27.50;;;11.32;;
69419;SDS011;71621;52.030;113.516;2023-08-01T02:29:49;25.77;;;11.90;;
69419;SDS011;71621;52.030;113.516;2023-08-01T02:32:53;35.67;;;13.40;;
69419;SDS011;71621;52.030;113.516;2023-08-01T02:35:57;29.08;;;12.90;;
69419;SDS011;71621;52.030;113.516;2023-08-01T02:39:00;28.02;;;11.90;;
69419;SDS011;71621;52.030;113.516;2023-08-01T02:42:04;26.70;;;13.05;;
69419;SDS011;71621;52.030;113.516;2023-08-01T02:45:08;30.10;;;13.50;;
69419;SDS011;71621;52.030;113.516;2023-08-01T02:48:12;29.83;;;12.07;;
69419;SDS011;71621;52.030;113.516;2023-08-01T02:51:15;28.63;;;12.73;;
69419;SDS011;71621;52.030;113.516;2023-08-01T02:54:18;28.50;;;12.90;;
69419;SDS011;71621;52.030;113.516;2023-08-01T02:57:22;28.13;;;13.45;;
69419;SDS011;71621;52.030;113.516;2023-08-01T03:00:27;27.27;;;12.53;;
69419;SDS011;71621;52.030;113.516;2023-08-01T03:03:30;24.67;;;12.25;;
69419;SDS011;71621;52.030;113.516;2023-08-01T03:06:34;24.60;;;12.48;;
69419;SDS011;71621;52.030;113.516;2023-08-01T03:09:37;21.83;;;11.65;;
69419;SDS011;71621;52.030;113.516;2023-08-01T03:12:41;23.40;;;11.65;;
69419;SDS011;71621;52.030;113.516;2023-08-01T03:15:45;24.03;;;10.70;;
69419;SDS011;71621;52.030;113.516;2023-08-01T03:18:49;22.75;;;11.40;;
69419;SDS011;71621;52.030;113.516;2023-08-01T03:21:53;27.55;;;12.15;;
69419;SDS011;71621;52.030;113.516;2023-08-01T03:24:57;26.77;;;10.93;;
69419;SDS011;71621;52.030;113.516;2023-08-01T03:28:01;25.70;;;12.40;;
69419;SDS011;71621;52.030;113.516;2023-08-01T03:31:05;21.20;;;11.20;;
69419;SDS011;71621;52.030;113.516;2023-08-01T03:34:08;26.05;;;11.80;;
69419;SDS011;71621;52.030;113.516;2023-08-01T03:37:12;23.27;;;12.43;;
69419;SDS011;71621;52.030;113.516;2023-08-01T03:40:16;25.77;;;12.25;;
69419;SDS011;71621;52.030;113.516;2023-08-01T03:43:20;23.73;;;11.93;;
69419;SDS011;71621;52.030;113.516;2023-08-01T03:46:26;23.07;;;11.80;;
69419;SDS011;71621;52.030;113.516;2023-08-01T03:49:29;28.92;;;11.82;;
69419;SDS011;71621;52.030;113.516;2023-08-01T03:52:33;23.75;;;11.73;;
69419;SDS011;71621;52.030;113.516;2023-08-01T03:55:37;23.67;;;11.50;;
69419;SDS011;71621;52.030;113.516;2023-08-01T03:58:41;18.15;;;9.60;;
69419;SDS011;71621;52.030;113.516;2023-08-01T04:01:44;18.30;;;9.93;;
69419;SDS011;71621;52.030;113.516;2023-08-01T04:04:49;17.42;;;8.60;;
69419;SDS011;71621;52.030;113.516;2023-08-01T04:07:52;15.32;;;8.73;;
69419;SDS011;71621;52.030;113.516;2023-08-01T04:10:59;18.40;;;9.23;;
69419;SDS011;71621;52.030;113.516;2023-08-01T04:14:03;14.82;;;8.15;;
69419;SDS011;71621;52.030;113.516;2023-08-01T04:17:06;16.07;;;8.30;;
69419;SDS011;71621;52.030;113.516;2023-08-01T04:20:10;20.45;;;8.93;;
69419;SDS011;71621;52.030;113.516;2023-08-01T04:23:14;16.25;;;6.78;;
69419;SDS011;71621;52.030;113.516;2023-08-01T04:26:17;11.30;;;5.93;;
69419;SDS011;71621;52.030;113.516;2023-08-01T04:29:21;13.35;;;6.03;;
69419;SDS011;71621;52.030;113.516;2023-08-01T04:32:24;10.43;;;5.77;;
69419;SDS011;71621;52.030;113.516;2023-08-01T04:35:28;14.50;;;6.97;;
69419;SDS011;71621;52.030;113.516;2023-08-01T04:38:32;9.98;;;6.85;;
69419;SDS011;71621;52.030;113.516;2023-08-01T04:41:35;9.15;;;5.95;;
69419;SDS011;71621;52.030;113.516;2023-08-01T04:44:39;10.75;;;6.15;;
69419;SDS011;71621;52.030;113.516;2023-08-01T04:47:42;14.13;;;7.20;;
69419;SDS011;71621;52.030;113.516;2023-08-01T04:50:46;12.18;;;7.15;;
69419;SDS011;71621;52.030;113.516;2023-08-01T04:53:49;17.90;;;7.30;;
69419;SDS011;71621;52.030;113.516;2023-08-01T04:56:53;10.00;;;6.10;;
69419;SDS011;71621;52.030;113.516;2023-08-01T04:59:57;11.27;;;6.72;;
69419;SDS011;71621;52.030;113.516;2023-08-01T05:03:02;15.27;;;8.07;;
69419;SDS011;71621;52.030;113.516;2023-08-01T05:06:05;14.38;;;6.95;;
69419;SDS011;71621;52.030;113.516;2023-08-01T05:09:09;17.10;;;7.55;;
69419;SDS011;71621;52.030;113.516;2023-08-01T05:12:12;13.82;;;7.68;;
69419;SDS011;71621;52.030;113.516;2023-08-01T05:15:16;12.75;;;7.53;;
69419;SDS011;71621;52.030;113.516;2023-08-01T05:18:20;14.00;;;6.93;;
69419;SDS011;71621;52.030;113.516;2023-08-01T05:21:23;14.02;;;7.45;;
69419;SDS011;71621;52.030;113.516;2023-08-01T05:24:27;15.15;;;7.13;;
69419;SDS011;71621;52.030;113.516;2023-08-01T05:27:31;11.38;;;7.00;;
69419;SDS011;71621;52.030;113.516;2023-08-01T05:30:36;13.80;;;8.25;;
69419;SDS011;71621;52.030;113.516;2023-08-01T05:33:40;13.33;;;6.43;;
69419;SDS011;71621;52.030;113.516;2023-08-01T05:36:44;14.52;;;7.20;;
69419;SDS011;71621;52.030;113.516;2023-08-01T05:39:47;9.48;;;6.88;;
69419;SDS011;71621;52.030;113.516;2023-08-01T05:42:51;14.20;;;7.78;;
69419;SDS011;71621;52.030;113.516;2023-08-01T05:45:54;10.75;;;6.10;;
69419;SDS011;71621;52.030;113.516;2023-08-01T05:48:58;12.53;;;6.70;;
69419;SDS011;71621;52.030;113.516;2023-08-01T05:52:02;13.10;;;6.43;;
69419;SDS011;71621;52.030;113.516;2023-08-01T05:55:05;12.32;;;6.75;;
69419;SDS011;71621;52.030;113.516;2023-08-01T05:58:09;9.20;;;5.93;;
69419;SDS011;71621;52.030;113.516;2023-08-01T06:01:13;10.73;;;5.90;;
69419;SDS011;71621;52.030;113.516;2023-08-01T06:04:17;14.57;;;6.50;;
69419;SDS011;71621;52.030;113.516;2023-08-01T06:07:21;12.80;;;5.90;;
69419;SDS011;71621;52.030;113.516;2023-08-01T06:10:25;13.35;;;6.72;;
69419;SDS011;71621;52.030;113.516;2023-08-01T06:13:29;12.02;;;6.38;;
69419;SDS011;71621;52.030;113.516;2023-08-01T06:16:33;11.57;;;6.38;;
69419;SDS011;71621;52.030;113.516;2023-08-01T06:19:36;11.33;;;6.50;;
69419;SDS011;71621;52.030;113.516;2023-08-01T06:22:41;11.70;;;6.43;;
69419;SDS011;71621;52.030;113.516;2023-08-01T06:25:45;12.63;;;6.50;;
69419;SDS011;71621;52.030;113.516;2023-08-01T06:28:49;12.63;;;6.15;;
69419;SDS011;71621;52.030;113.516;2023-08-01T06:31:53;11.98;;;6.05;;
69419;SDS011;71621;52.030;113.516;2023-08-01T06:34:57;11.53;;;6.17;;
69419;SDS011;71621;52.030;113.516;2023-08-01T06:38:00;13.82;;;6.10;;
69419;SDS011;71621;52.030;113.516;2023-08-01T06:41:04;12.57;;;6.32;;
69419;SDS011;71621;52.030;113.516;2023-08-01T06:44:08;10.95;;;5.90;;
69419;SDS011;71621;52.030;113.516;2023-08-01T06:47:12;11.52;;;6.43;;
69419;SDS011;71621;52.030;113.516;2023-08-01T06:50:16;13.93;;;6.20;;
69419;SDS011;71621;52.030;113.516;2023-08-01T06:53:19;12.05;;;6.75;;
69419;SDS011;71621;52.030;113.516;2023-08-01T06:56:24;11.50;;;5.75;;
69419;SDS011;71621;52.030;113.516;2023-08-01T06:59:27;10.93;;;5.30;;
69419;SDS011;71621;52.030;113.516;2023-08-01T07:02:31;10.68;;;6.53;;
69419;SDS011;71621;52.030;113.516;2023-08-01T07:05:35;11.90;;;6.57;;
69419;SDS011;71621;52.030;113.516;2023-08-01T07:08:38;13.38;;;6.10;;
69419;SDS011;71621;52.030;113.516;2023-08-01T07:11:42;10.70;;;5.70;;
69419;SDS011;71621;52.030;113.516;2023-08-01T07:14:46;9.40;;;5.68;;
69419;SDS011;71621;52.030;113.516;2023-08-01T07:17:49;14.00;;;6.20;;
69419;SDS011;71621;52.030;113.516;2023-08-01T07:21:00;10.03;;;5.90;;
69419;SDS011;71621;52.030;113.516;2023-08-01T07:24:04;8.35;;;5.70;;
69419;SDS011;71621;52.030;113.516;2023-08-01T07:27:08;11.57;;;6.40;;
69419;SDS011;71621;52.030;113.516;2023-08-01T07:30:12;11.13;;;6.20;;
69419;SDS011;71621;52.030;113.516;2023-08-01T07:33:15;11.77;;;5.35;;
69419;SDS011;71621;52.030;113.516;2023-08-01T07:36:19;11.57;;;6.47;;
69419;SDS011;71621;52.030;113.516;2023-08-01T07:39:24;12.85;;;6.25;;
69419;SDS011;71621;52.030;113.516;2023-08-01T07:42:40;11.52;;;5.97;;
69419;SDS011;71621;52.030;113.516;2023-08-01T07:45:43;10.10;;;6.65;;
69419;SDS011;71621;52.030;113.516;2023-08-01T07:48:49;11.23;;;6.38;;
69419;SDS011;71621;52.030;113.516;2023-08-01T07:51:54;15.20;;;6.07;;
69419;SDS011;71621;52.030;113.516;2023-08-01T07:54:58;12.65;;;6.43;;
69419;SDS011;71621;52.030;113.516;2023-08-01T07:58:01;15.05;;;8.13;;
69419;SDS011;71621;52.030;113.516;2023-08-01T08:01:05;17.33;;;8.00;;
69419;SDS011;71621;52.030;113.516;2023-08-01T08:04:09;22.65;;;7.80;;
69419;SDS011;71621;52.030;113.516;2023-08-01T08:07:13;17.40;;;7.90;;
69419;SDS011;71621;52.030;113.516;2023-08-01T08:10:17;17.10;;;8.80;;
69419;SDS011;71621;52.030;113.516;2023-08-01T08:13:20;18.85;;;8.35;;
69419;SDS011;71621;52.030;113.516;2023-08-01T08:16:24;20.05;;;8.77;;
69419;SDS011;71621;52.030;113.516;2023-08-01T08:19:28;25.83;;;11.25;;
69419;SDS011;71621;52.030;113.516;2023-08-01T08:22:32;22.30;;;9.20;;
69419;SDS011;71621;52.030;113.516;2023-08-01T08:25:35;24.27;;;8.88;;
69419;SDS011;71621;52.030;113.516;2023-08-01T08:28:39;18.58;;;8.32;;
69419;SDS011;71621;52.030;113.516;2023-08-01T08:31:44;21.02;;;8.48;;
69419;SDS011;71621;52.030;113.516;2023-08-01T08:34:48;15.68;;;7.30;;
69419;SDS011;71621;52.030;113.516;2023-08-01T08:37:51;15.87;;;7.03;;
69419;SDS011;71621;52.030;113.516;2023-08-01T08:41:11;29.73;;;9.43;;
69419;SDS011;71621;52.030;113.516;2023-08-01T08:44:17;20.08;;;7.85;;
69419;SDS011;71621;52.030;113.516;2023-08-01T08:47:26;21.90;;;7.72;;
69419;SDS011;71621;52.030;113.516;2023-08-01T08:50:31;24.58;;;8.05;;
69419;SDS011;71621;52.030;113.516;2023-08-01T08:53:36;24.17;;;10.37;;
69419;SDS011;71621;52.030;113.516;2023-08-01T08:56:40;15.95;;;7.75;;
69419;SDS011;71621;52.030;113.516;2023-08-01T08:59:44;19.05;;;7.75;;
69419;SDS011;71621;52.030;113.516;2023-08-01T09:02:49;19.95;;;7.28;;
69419;SDS011;71621;52.030;113.516;2023-08-01T09:05:54;12.95;;;6.70;;
69419;SDS011;71621;52.030;113.516;2023-08-01T09:09:10;18.90;;;7.20;;
69419;SDS011;71621;52.030;113.516;2023-08-01T09:12:15;16.30;;;7.72;;
69419;SDS011;71621;52.030;113.516;2023-08-01T09:15:18;18.17;;;7.88;;
69419;SDS011;71621;52.030;113.516;2023-08-01T09:18:22;16.98;;;7.63;;
69419;SDS011;71621;52.030;113.516;2023-08-01T09:21:26;22.33;;;12.75;;
69419;SDS011;71621;52.030;113.516;2023-08-01T09:24:30;23.77;;;8.40;;
69419;SDS011;71621;52.030;113.516;2023-08-01T09:27:33;14.15;;;7.10;;
69419;SDS011;71621;52.030;113.516;2023-08-01T09:30:44;14.90;;;7.43;;
69419;SDS011;71621;52.030;113.516;2023-08-01T09:33:49;19.45;;;7.03;;
69419;SDS011;71621;52.030;113.516;2023-08-01T09:36:59;16.88;;;7.82;;
69419;SDS011;71621;52.030;113.516;2023-08-01T09:40:03;14.73;;;7.00;;
69419;SDS011;71621;52.030;113.516;2023-08-01T09:43:07;22.65;;;7.30;;
69419;SDS011;71621;52.030;113.516;2023-08-01T09:46:11;15.40;;;7.20;;
69419;SDS011;71621;52.030;113.516;2023-08-01T09:49:15;16.92;;;6.75;;
69419;SDS011;71621;52.030;113.516;2023-08-01T09:52:28;16.45;;;7.05;;
69419;SDS011;71621;52.030;113.516;2023-08-01T09:55:33;15.43;;;7.10;;
69419;SDS011;71621;52.030;113.516;2023-08-01T09:58:37;19.25;;;8.05;;
69419;SDS011;71621;52.030;113.516;2023-08-01T10:01:41;18.08;;;7.70;;
69419;SDS011;71621;52.030;113.516;2023-08-01T10:04:47;18.17;;;8.00;;
69419;SDS011;71621;52.030;113.516;2023-08-01T10:07:51;17.67;;;8.20;;
69419;SDS011;71621;52.030;113.516;2023-08-01T10:10:57;18.37;;;8.47;;
69419;SDS011;71621;52.030;113.516;2023-08-01T10:14:02;28.15;;;9.63;;
69419;SDS011;71621;52.030;113.516;2023-08-01T10:17:06;24.92;;;9.38;;
69419;SDS011;71621;52.030;113.516;2023-08-01T10:20:11;23.38;;;8.20;;
69419;SDS011;71621;52.030;113.516;2023-08-01T10:23:16;24.83;;;9.45;;
69419;SDS011;71621;52.030;113.516;2023-08-01T10:26:20;23.30;;;9.00;;
69419;SDS011;71621;52.030;113.516;2023-08-01T10:29:36;24.70;;;8.77;;
69419;SDS011;71621;52.030;113.516;2023-08-01T10:32:40;23.30;;;9.15;;
69419;SDS011;71621;52.030;113.516;2023-08-01T10:35:44;26.60;;;9.55;;
69419;SDS011;71621;52.030;113.516;2023-08-01T10:38:55;28.58;;;8.55;;
69419;SDS011;71621;52.030;113.516;2023-08-01T10:42:01;13.27;;;7.70;;
69419;SDS011;71621;52.030;113.516;2023-08-01T10:45:07;18.20;;;8.00;;
69419;SDS011;71621;52.030;113.516;2023-08-01T10:48:22;15.80;;;7.53;;
69419;SDS011;71621;52.030;113.516;2023-08-01T10:51:34;17.95;;;7.88;;
69419;SDS011;71621;52.030;113.516;2023-08-01T10:54:39;18.23;;;8.02;;
69419;SDS011;71621;52.030;113.516;2023-08-01T10:57:47;20.83;;;7.67;;
69419;SDS011;71621;52.030;113.516;2023-08-01T11:00:58;17.88;;;8.27;;
69419;SDS011;71621;52.030;113.516;2023-08-01T11:04:03;17.17;;;8.10;;
69419;SDS011;71621;52.030;113.516;2023-08-01T11:07:17;15.45;;;8.43;;
69419;SDS011;71621;52.030;113.516;2023-08-01T11:10:20;23.45;;;14.90;;
69419;SDS011;71621;52.030;113.516;2023-08-01T11:13:24;20.10;;;9.23;;
69419;SDS011;71621;52.030;113.516;2023-08-01T11:16:28;19.63;;;9.52;;
69419;SDS011;71621;52.030;113.516;2023-08-01T11:19:32;21.77;;;10.30;;
69419;SDS011;71621;52.030;113.516;2023-08-01T11:22:36;21.00;;;9.38;;
69419;SDS011;71621;52.030;113.516;2023-08-01T11:25:41;24.50;;;10.00;;
69419;SDS011;71621;52.030;113.516;2023-08-01T11:28:46;22.50;;;9.93;;
69419;SDS011;71621;52.030;113.516;2023-08-01T11:35:01;23.95;;;10.10;;
69419;SDS011;71621;52.030;113.516;2023-08-01T11:38:05;21.83;;;10.75;;
69419;SDS011;71621;52.030;113.516;2023-08-01T11:41:09;21.08;;;9.73;;
69419;SDS011;71621;52.030;113.516;2023-08-01T11:44:13;21.93;;;10.37;;
69419;SDS011;71621;52.030;113.516;2023-08-01T11:47:17;20.63;;;10.48;;
69419;SDS011;71621;52.030;113.516;2023-08-01T11:50:22;34.83;;;19.50;;
69419;SDS011;71621;52.030;113.516;2023-08-01T11:53:27;56.17;;;36.38;;
69419;SDS011;71621;52.030;113.516;2023-08-01T11:56:32;42.25;;;28.00;;
69419;SDS011;71621;52.030;113.516;2023-08-01T11:59:45;33.47;;;13.47;;
69419;SDS011;71621;52.030;113.516;2023-08-01T12:03:02;26.98;;;11.50;;
69419;SDS011;71621;52.030;113.516;2023-08-01T12:06:08;30.63;;;10.50;;
69419;SDS011;71621;52.030;113.516;2023-08-01T12:09:12;57.50;;;32.95;;
69419;SDS011;71621;52.030;113.516;2023-08-01T12:12:16;53.42;;;29.60;;
69419;SDS011;71621;52.030;113.516;2023-08-01T12:15:19;30.47;;;15.83;;
69419;SDS011;71621;52.030;113.516;2023-08-01T12:18:29;19.90;;;11.13;;
69419;SDS011;71621;52.030;113.516;2023-08-01T12:21:35;22.60;;;11.13;;
69419;SDS011;71621;52.030;113.516;2023-08-01T12:24:40;24.17;;;9.27;;
69419;SDS011;71621;52.030;113.516;2023-08-01T12:27:44;21.85;;;9.85;;
69419;SDS011;71621;52.030;113.516;2023-08-01T12:30:47;17.07;;;10.03;;
69419;SDS011;71621;52.030;113.516;2023-08-01T12:33:51;23.63;;;9.07;;
69419;SDS011;71621;52.030;113.516;2023-08-01T12:36:56;17.63;;;10.30;;
69419;SDS011;71621;52.030;113.516;2023-08-01T12:39:59;19.67;;;10.00;;
69419;SDS011;71621;52.030;113.516;2023-08-01T12:43:03;25.05;;;14.75;;
69419;SDS011;71621;52.030;113.516;2023-08-01T12:46:08;26.30;;;14.40;;
69419;SDS011;71621;52.030;113.516;2023-08-01T12:49:12;25.25;;;15.05;;
69419;SDS011;71621;52.030;113.516;2023-08-01T12:52:21;22.52;;;13.43;;
69419;SDS011;71621;52.030;113.516;2023-08-01T12:55:27;19.30;;;9.75;;
69419;SDS011;71621;52.030;113.516;2023-08-01T12:58:30;17.27;;;10.20;;
69419;SDS011;71621;52.030;113.516;2023-08-01T13:01:34;21.17;;;11.10;;
69419;SDS011;71621;52.030;113.516;2023-08-01T13:04:38;26.23;;;12.45;;
69419;SDS011;71621;52.030;113.516;2023-08-01T13:07:42;23.17;;;11.73;;
69419;SDS011;71621;52.030;113.516;2023-08-01T13:10:46;25.00;;;11.77;;
69419;SDS011;71621;52.030;113.516;2023-08-01T13:13:49;31.48;;;12.52;;
69419;SDS011;71621;52.030;113.516;2023-08-01T13:16:53;17.40;;;9.77;;
69419;SDS011;71621;52.030;113.516;2023-08-01T13:19:57;19.20;;;9.32;;
69419;SDS011;71621;52.030;113.516;2023-08-01T13:23:01;20.52;;;9.82;;
69419;SDS011;71621;52.030;113.516;2023-08-01T13:26:06;21.92;;;12.52;;
69419;SDS011;71621;52.030;113.516;2023-08-01T13:29:09;23.42;;;11.18;;
69419;SDS011;71621;52.030;113.516;2023-08-01T13:32:13;35.17;;;13.47;;
69419;SDS011;71621;52.030;113.516;2023-08-01T13:35:16;25.25;;;12.95;;
69419;SDS011;71621;52.030;113.516;2023-08-01T13:38:20;34.85;;;15.50;;
69419;SDS011;71621;52.030;113.516;2023-08-01T13:41:23;28.73;;;14.55;;
69419;SDS011;71621;52.030;113.516;2023-08-01T13:44:27;30.30;;;16.65;;
69419;SDS011;71621;52.030;113.516;2023-08-01T13:47:30;35.03;;;16.53;;
69419;SDS011;71621;52.030;113.516;2023-08-01T13:50:34;35.90;;;14.82;;
69419;SDS011;71621;52.030;113.516;2023-08-01T13:53:38;25.73;;;14.77;;
69419;SDS011;71621;52.030;113.516;2023-08-01T13:56:45;29.35;;;14.57;;
69419;SDS011;71621;52.030;113.516;2023-08-01T13:59:49;24.27;;;13.95;;
69419;SDS011;71621;52.030;113.516;2023-08-01T14:03:11;23.70;;;12.43;;
69419;SDS011;71621;52.030;113.516;2023-08-01T14:06:15;26.60;;;13.85;;
69419;SDS011;71621;52.030;113.516;2023-08-01T14:09:19;25.05;;;13.82;;
69419;SDS011;71621;52.030;113.516;2023-08-01T14:12:22;34.03;;;14.85;;
69419;SDS011;71621;52.030;113.516;2023-08-01T14:15:27;25.95;;;13.88;;
69419;SDS011;71621;52.030;113.516;2023-08-01T14:18:31;22.13;;;12.23;;
69419;SDS011;71621;52.030;113.516;2023-08-01T14:21:34;28.23;;;13.60;;
69419;SDS011;71621;52.030;113.516;2023-08-01T14:24:38;22.25;;;13.32;;
69419;SDS011;71621;52.030;113.516;2023-08-01T14:27:41;26.35;;;13.60;;
69419;SDS011;71621;52.030;113.516;2023-08-01T14:30:45;25.50;;;13.57;;
69419;SDS011;71621;52.030;113.516;2023-08-01T14:33:48;27.10;;;14.43;;
69419;SDS011;71621;52.030;113.516;2023-08-01T14:36:52;24.67;;;13.27;;
69419;SDS011;71621;52.030;113.516;2023-08-01T14:39:56;24.60;;;13.43;;
69419;SDS011;71621;52.030;113.516;2023-08-01T14:42:59;22.15;;;13.77;;
69419;SDS011;71621;52.030;113.516;2023-08-01T14:46:03;25.25;;;13.23;;
69419;SDS011;71621;52.030;113.516;2023-08-01T14:49:06;23.90;;;12.30;;
69419;SDS011;71621;52.030;113.516;2023-08-01T14:52:10;29.15;;;12.85;;
69419;SDS011;71621;52.030;113.516;2023-08-01T14:55:14;30.85;;;16.40;;
69419;SDS011;71621;52.030;113.516;2023-08-01T14:58:17;24.65;;;13.40;;
69419;SDS011;71621;52.030;113.516;2023-08-01T15:01:21;23.48;;;13.77;;
69419;SDS011;71621;52.030;113.516;2023-08-01T15:04:25;22.90;;;12.40;;
69419;SDS011;71621;52.030;113.516;2023-08-01T15:07:29;19.73;;;12.40;;
69419;SDS011;71621;52.030;113.516;2023-08-01T15:10:35;28.98;;;14.02;;
69419;SDS011;71621;52.030;113.516;2023-08-01T15:13:39;23.25;;;13.18;;
69419;SDS011;71621;52.030;113.516;2023-08-01T15:16:43;29.13;;;14.30;;
69419;SDS011;71621;52.030;113.516;2023-08-01T15:19:46;23.00;;;13.90;;
69419;SDS011;71621;52.030;113.516;2023-08-01T15:22:50;18.92;;;12.05;;
69419;SDS011;71621;52.030;113.516;2023-08-01T15:25:55;22.30;;;12.05;;
69419;SDS011;71621;52.030;113.516;2023-08-01T15:29:00;21.52;;;12.13;;
69419;SDS011;71621;52.030;113.516;2023-08-01T15:32:04;21.67;;;11.70;;
69419;SDS011;71621;52.030;113.516;2023-08-01T15:35:08;21.80;;;11.83;;
69419;SDS011;71621;52.030;113.516;2023-08-01T15:38:11;21.58;;;13.38;;
69419;SDS011;71621;52.030;113.516;2023-08-01T15:41:15;23.45;;;12.20;;
69419;SDS011;71621;52.030;113.516;2023-08-01T15:44:19;17.75;;;11.25;;
69419;SDS011;71621;52.030;113.516;2023-08-01T15:47:22;18.40;;;11.55;;
69419;SDS011;71621;52.030;113.516;2023-08-01T15:50:26;20.47;;;11.50;;
69419;SDS011;71621;52.030;113.516;2023-08-01T15:53:30;23.77;;;11.52;;
69419;SDS011;71621;52.030;113.516;2023-08-01T15:56:34;18.77;;;11.30;;
69419;SDS011;71621;52.030;113.516;2023-08-01T15:59:38;21.52;;;11.65;;
69419;SDS011;71621;52.030;113.516;2023-08-01T16:02:42;21.30;;;11.50;;
69419;SDS011;71621;52.030;113.516;2023-08-01T16:05:45;24.20;;;11.37;;
69419;SDS011;71621;52.030;113.516;2023-08-01T16:08:49;19.42;;;11.20;;
69419;SDS011;71621;52.030;113.516;2023-08-01T16:11:53;19.63;;;10.75;;
69419;SDS011;71621;52.030;113.516;2023-08-01T16:14:56;18.55;;;10.50;;
69419;SDS011;71621;52.030;113.516;2023-08-01T16:18:00;24.48;;;11.30;;
69419;SDS011;71621;52.030;113.516;2023-08-01T16:21:04;18.90;;;10.20;;
69419;SDS011;71621;52.030;113.516;2023-08-01T16:24:08;16.98;;;9.90;;
69419;SDS011;71621;52.030;113.516;2023-08-01T16:27:11;20.48;;;10.70;;
69419;SDS011;71621;52.030;113.516;2023-08-01T16:30:15;21.23;;;10.00;;
69419;SDS011;71621;52.030;113.516;2023-08-01T16:33:18;20.08;;;10.75;;
69419;SDS011;71621;52.030;113.516;2023-08-01T16:36:22;18.27;;;10.83;;
69419;SDS011;71621;52.030;113.516;2023-08-01T16:39:26;16.17;;;10.32;;
69419;SDS011;71621;52.030;113.516;2023-08-01T16:42:29;19.65;;;13.00;;
69419;SDS011;71621;52.030;113.516;2023-08-01T16:45:33;17.30;;;10.50;;
69419;SDS011;71621;52.030;113.516;2023-08-01T16:48:36;20.85;;;11.25;;
69419;SDS011;71621;52.030;113.516;2023-08-01T16:51:40;20.90;;;11.27;;
69419;SDS011;71621;52.030;113.516;2023-08-01T16:54:44;18.65;;;12.13;;
69419;SDS011;71621;52.030;113.516;2023-08-01T16:57:47;24.02;;;13.30;;
69419;SDS011;71621;52.030;113.516;2023-08-01T17:00:51;18.70;;;11.25;;
69419;SDS011;71621;52.030;113.516;2023-08-01T17:03:55;18.58;;;11.48;;
69419;SDS011;71621;52.030;113.516;2023-08-01T17:06:58;21.37;;;11.87;;
69419;SDS011;71621;52.030;113.516;2023-08-01T17:10:05;19.45;;;11.43;;
69419;SDS011;71621;52.030;113.516;2023-08-01T17:13:10;15.48;;;10.27;;
69419;SDS011;71621;52.030;113.516;2023-08-01T17:16:13;20.13;;;11.05;;
69419;SDS011;71621;52.030;113.516;2023-08-01T17:19:17;19.27;;;11.38;;
69419;SDS011;71621;52.030;113.516;2023-08-01T17:22:20;19.87;;;11.00;;
69419;SDS011;71621;52.030;113.516;2023-08-01T17:25:26;16.88;;;9.60;;
69419;SDS011;71621;52.030;113.516;2023-08-01T17:28:29;20.80;;;11.10;;
69419;SDS011;71621;52.030;113.516;2023-08-01T17:31:35;22.73;;;10.95;;
69419;SDS011;71621;52.030;113.516;2023-08-01T17:34:38;21.63;;;11.43;;
69419;SDS011;71621;52.030;113.516;2023-08-01T17:37:42;19.83;;;11.20;;
69419;SDS011;71621;52.030;113.516;2023-08-01T17:40:46;17.13;;;10.35;;